Advance Mills, VA

1:36 PM EST on November 23, 2014 (GMT -0500)
Planet Earth Diversified Barn | Change Station
CLOSE
Current Station
Personal Weather Station
Location: Stanardsville, VA
Elevation: 595 ft
Nearby Weather Stations

Elev 595 ft 38.25 °N, 78.46 °W | Updated 60 seconds ago

Mostly Cloudy
Mostly Cloudy
52.0 °F
Feels Like 52.0 °F
N
1.0
Wind Variable Wind from SSE
Gusts 1.0 mph

Today
High -- | Low -- °F
--% Chance of Precip.
Yesterday
High -- | Low -- °F
Precip. -- in
7:03 AM 4:56 PM
New Moon, 2% visible
Pressure 30.13 in
Visibility 10.0 miles
Clouds Overcast 2900 ft
Dew Point 31 °F
Humidity 44%
Rainfall 0.00 in
Snow Depth Not available.
UV 0.9 out of 12
Pollen .10 out of 12
Air Quality Not available.
Flu Activity Not available.
METAR KCHO 231753Z 19008KT 10SM OVC029 12/M03 A3013 RMK AO2 SLP203 T01171028 10117 20017 58019

More Conditions Fewer Conditions

Pressure 30.13 in
Visibility 10.0 miles
Clouds Overcast 2900 ft
Dew Point 31 °F
Humidity 44%
Rainfall 0.00 in
Snow Depth Not available.
UV 0.9 out of 12
Pollen .10 out of 12
Air Quality Not available.
Flu Activity Not available.
METAR KCHO 231753Z 19008KT 10SM OVC029 12/M03 A3013 RMK AO2 SLP203 T01171028 10117 20017 58019

More Conditions Fewer Conditions

10-Day Weather Forecast

Almanac

Astronomy

Nov. 23, 2014 Rise Set
Actual Time
Civil Twilight
Nautical Twilight
Astronomical Twilight
Moon
Length of Visible Light
Length of Day
Tomorrow will be .
, % of the Moon is Illuminated

Today's Extremes

State Highs State Lows

Community

WunderPhotos

Upload Photos

1,773,126 photos uploaded!

WunderBlogs® & News

Nearby

Air Quality

  Air Quality AQ Index Pollutant
Not available.

Snow Depth

Station Depth Elevation

Earthquake Activity

City Distance Mag. Time & Date
Minimum magnitude displayed is 2.5.

Coastal Water Temperatures

Place Temperature

Nearby Weather Stations